Главная страница
METAR-TAF:

METAR-TAF

Аэропорты :

Somerset Airport

Сомервилл, Нью-Джерси, США

широта: 40-37-26N, долгота: 074-40-10W, высота над уровнем моря: 32 м

Текущие метеонаблюдения

Эта сводка был подготовлена 56 минут назад, в 15:53 UTC
Ветер 3 Узел переменных направлений
Температура 1°C
Влажность 69%
Давление 1019 hPa
Видимость: 14.5 км
Сплошная облачность на высоте 3300 фута

METAR: KSMQ 161553Z AUTO VRB03KT 9SM OVC033 01/M04 A3008 RMK AO2 SLP190 T00111039

Время: 11:49 (16:49 UTC)


TAF: отсутствует

Метеонаблюдения и прогнозы для более 4000 аэропортов (сводки METAR и TAF).

Имеющиеся станции представлены на карте желтыми и красными точками.

Чтобы увидеть название станции, наведите на нее мышь.

Затем щелкните, чтобы увидеть метеонаблюдения и метеопрогнозы.

Управление картой: чтобы увеличить масштаб, щелкните зеленые кнопки с черным крестиком; чтобы уменьшить масштаб, щелкните зеленую кнопку с тире; для просмотра соседних карт щелкайте зеленые стрелки.


METAR-TAF: